sensor_id;sensor_type;location;lat;lon;timestamp;P1;durP1;ratioP1;P2;durP2;ratioP2
22476;SDS011;65006;51.698;-0.292;2023-05-18T00:01:01;8.75;;;2.03;;
22476;SDS011;65006;51.698;-0.292;2023-05-18T00:03:27;11.75;;;2.20;;
22476;SDS011;65006;51.698;-0.292;2023-05-18T00:05:57;14.00;;;2.53;;
22476;SDS011;65006;51.698;-0.292;2023-05-18T00:08:29;4.40;;;1.90;;
22476;SDS011;65006;51.698;-0.292;2023-05-18T00:10:55;5.93;;;1.95;;
22476;SDS011;65006;51.698;-0.292;2023-05-18T00:13:23;11.27;;;2.00;;
22476;SDS011;65006;51.698;-0.292;2023-05-18T00:15:49;12.65;;;2.38;;
22476;SDS011;65006;51.698;-0.292;2023-05-18T00:18:15;10.55;;;2.03;;
22476;SDS011;65006;51.698;-0.292;2023-05-18T00:20:41;12.10;;;2.17;;
22476;SDS011;65006;51.698;-0.292;2023-05-18T00:23:07;5.68;;;2.15;;
22476;SDS011;65006;51.698;-0.292;2023-05-18T00:25:40;10.70;;;2.92;;
22476;SDS011;65006;51.698;-0.292;2023-05-18T00:28:06;6.07;;;1.80;;
22476;SDS011;65006;51.698;-0.292;2023-05-18T00:30:32;7.70;;;2.05;;
22476;SDS011;65006;51.698;-0.292;2023-05-18T00:32:58;11.38;;;2.33;;
22476;SDS011;65006;51.698;-0.292;2023-05-18T00:35:25;10.82;;;2.33;;
22476;SDS011;65006;51.698;-0.292;2023-05-18T00:37:51;7.65;;;1.98;;
22476;SDS011;65006;51.698;-0.292;2023-05-18T00:40:17;13.48;;;3.05;;
22476;SDS011;65006;51.698;-0.292;2023-05-18T00:42:43;7.25;;;1.63;;
22476;SDS011;65006;51.698;-0.292;2023-05-18T00:45:10;9.07;;;2.10;;
22476;SDS011;65006;51.698;-0.292;2023-05-18T00:47:36;8.18;;;2.72;;
22476;SDS011;65006;51.698;-0.292;2023-05-18T00:50:02;10.10;;;2.28;;
22476;SDS011;65006;51.698;-0.292;2023-05-18T00:52:28;13.65;;;2.25;;
22476;SDS011;65006;51.698;-0.292;2023-05-18T00:54:54;15.30;;;2.30;;
22476;SDS011;65006;51.698;-0.292;2023-05-18T00:57:22;5.93;;;1.83;;
22476;SDS011;65006;51.698;-0.292;2023-05-18T00:59:48;11.30;;;3.13;;
22476;SDS011;65006;51.698;-0.292;2023-05-18T01:04:40;8.75;;;2.50;;
22476;SDS011;65006;51.698;-0.292;2023-05-18T01:07:07;10.23;;;2.47;;
22476;SDS011;65006;51.698;-0.292;2023-05-18T01:09:33;10.23;;;2.25;;
22476;SDS011;65006;51.698;-0.292;2023-05-18T01:12:02;10.15;;;2.45;;
22476;SDS011;65006;51.698;-0.292;2023-05-18T01:17:20;12.40;;;2.20;;
22476;SDS011;65006;51.698;-0.292;2023-05-18T01:22:36;9.48;;;2.60;;
22476;SDS011;65006;51.698;-0.292;2023-05-18T01:25:17;10.00;;;2.40;;
22476;SDS011;65006;51.698;-0.292;2023-05-18T01:27:44;9.52;;;1.73;;
22476;SDS011;65006;51.698;-0.292;2023-05-18T01:30:14;6.28;;;2.08;;
22476;SDS011;65006;51.698;-0.292;2023-05-18T01:32:42;13.98;;;2.50;;
22476;SDS011;65006;51.698;-0.292;2023-05-18T01:35:10;5.55;;;2.17;;
22476;SDS011;65006;51.698;-0.292;2023-05-18T01:37:36;10.40;;;2.50;;
22476;SDS011;65006;51.698;-0.292;2023-05-18T01:40:02;11.57;;;2.58;;
22476;SDS011;65006;51.698;-0.292;2023-05-18T01:42:29;7.57;;;1.92;;
22476;SDS011;65006;51.698;-0.292;2023-05-18T01:45:06;10.00;;;2.20;;
22476;SDS011;65006;51.698;-0.292;2023-05-18T01:47:32;10.25;;;3.08;;
22476;SDS011;65006;51.698;-0.292;2023-05-18T01:52:28;5.60;;;2.13;;
22476;SDS011;65006;51.698;-0.292;2023-05-18T01:54:57;5.45;;;2.20;;
22476;SDS011;65006;51.698;-0.292;2023-05-18T01:57:26;11.25;;;2.17;;
22476;SDS011;65006;51.698;-0.292;2023-05-18T01:59:52;3.80;;;1.45;;
22476;SDS011;65006;51.698;-0.292;2023-05-18T02:04:45;6.15;;;2.13;;
22476;SDS011;65006;51.698;-0.292;2023-05-18T02:07:11;6.32;;;2.05;;
22476;SDS011;65006;51.698;-0.292;2023-05-18T02:09:37;5.03;;;1.52;;
22476;SDS011;65006;51.698;-0.292;2023-05-18T02:12:03;10.38;;;2.45;;
22476;SDS011;65006;51.698;-0.292;2023-05-18T02:14:29;6.03;;;1.90;;
22476;SDS011;65006;51.698;-0.292;2023-05-18T02:16:55;7.70;;;2.13;;
22476;SDS011;65006;51.698;-0.292;2023-05-18T02:19:21;10.15;;;1.95;;
22476;SDS011;65006;51.698;-0.292;2023-05-18T02:21:49;7.75;;;2.20;;
22476;SDS011;65006;51.698;-0.292;2023-05-18T02:24:15;6.07;;;1.88;;
22476;SDS011;65006;51.698;-0.292;2023-05-18T02:26:42;9.00;;;2.03;;
22476;SDS011;65006;51.698;-0.292;2023-05-18T02:29:08;5.50;;;2.05;;
22476;SDS011;65006;51.698;-0.292;2023-05-18T02:31:36;6.70;;;2.20;;
22476;SDS011;65006;51.698;-0.292;2023-05-18T02:34:02;5.63;;;2.22;;
22476;SDS011;65006;51.698;-0.292;2023-05-18T02:36:28;8.15;;;2.70;;
22476;SDS011;65006;51.698;-0.292;2023-05-18T02:39:04;8.55;;;2.22;;
22476;SDS011;65006;51.698;-0.292;2023-05-18T02:43:56;7.40;;;1.70;;
22476;SDS011;65006;51.698;-0.292;2023-05-18T02:46:22;4.57;;;1.83;;
22476;SDS011;65006;51.698;-0.292;2023-05-18T02:48:48;8.43;;;2.92;;
22476;SDS011;65006;51.698;-0.292;2023-05-18T02:51:14;9.75;;;2.70;;
22476;SDS011;65006;51.698;-0.292;2023-05-18T02:53:40;9.90;;;3.22;;
22476;SDS011;65006;51.698;-0.292;2023-05-18T02:56:09;10.35;;;2.50;;
22476;SDS011;65006;51.698;-0.292;2023-05-18T02:58:36;7.05;;;2.63;;
22476;SDS011;65006;51.698;-0.292;2023-05-18T03:01:03;8.57;;;2.30;;
22476;SDS011;65006;51.698;-0.292;2023-05-18T03:03:31;9.88;;;2.97;;
22476;SDS011;65006;51.698;-0.292;2023-05-18T03:05:58;8.18;;;2.25;;
22476;SDS011;65006;51.698;-0.292;2023-05-18T03:08:26;16.92;;;2.92;;
22476;SDS011;65006;51.698;-0.292;2023-05-18T03:10:53;9.23;;;2.35;;
22476;SDS011;65006;51.698;-0.292;2023-05-18T03:13:19;11.90;;;2.58;;
22476;SDS011;65006;51.698;-0.292;2023-05-18T03:15:45;10.82;;;1.85;;
22476;SDS011;65006;51.698;-0.292;2023-05-18T03:18:11;8.43;;;2.20;;
22476;SDS011;65006;51.698;-0.292;2023-05-18T03:20:37;8.18;;;2.50;;
22476;SDS011;65006;51.698;-0.292;2023-05-18T03:23:03;7.40;;;2.58;;
22476;SDS011;65006;51.698;-0.292;2023-05-18T03:25:29;8.40;;;2.03;;
22476;SDS011;65006;51.698;-0.292;2023-05-18T03:27:56;8.88;;;2.50;;
22476;SDS011;65006;51.698;-0.292;2023-05-18T03:30:22;6.47;;;1.63;;
22476;SDS011;65006;51.698;-0.292;2023-05-18T03:32:48;11.82;;;2.30;;
22476;SDS011;65006;51.698;-0.292;2023-05-18T03:35:14;11.63;;;2.17;;
22476;SDS011;65006;51.698;-0.292;2023-05-18T03:37:41;6.43;;;1.92;;
22476;SDS011;65006;51.698;-0.292;2023-05-18T03:40:13;12.48;;;2.65;;
22476;SDS011;65006;51.698;-0.292;2023-05-18T03:42:41;7.65;;;2.30;;
22476;SDS011;65006;51.698;-0.292;2023-05-18T03:47:33;6.30;;;1.92;;
22476;SDS011;65006;51.698;-0.292;2023-05-18T03:49:59;10.85;;;2.47;;
22476;SDS011;65006;51.698;-0.292;2023-05-18T03:52:25;12.82;;;2.70;;
22476;SDS011;65006;51.698;-0.292;2023-05-18T03:54:54;15.63;;;2.55;;
22476;SDS011;65006;51.698;-0.292;2023-05-18T03:57:20;12.18;;;2.53;;
22476;SDS011;65006;51.698;-0.292;2023-05-18T03:59:46;10.68;;;2.47;;
22476;SDS011;65006;51.698;-0.292;2023-05-18T04:02:12;13.52;;;2.30;;
22476;SDS011;65006;51.698;-0.292;2023-05-18T04:04:40;14.00;;;3.42;;
22476;SDS011;65006;51.698;-0.292;2023-05-18T04:07:10;14.63;;;3.13;;
22476;SDS011;65006;51.698;-0.292;2023-05-18T04:12:02;9.57;;;2.63;;
22476;SDS011;65006;51.698;-0.292;2023-05-18T04:14:28;5.82;;;2.47;;
22476;SDS011;65006;51.698;-0.292;2023-05-18T04:16:57;8.85;;;2.60;;
22476;SDS011;65006;51.698;-0.292;2023-05-18T04:19:28;9.88;;;2.78;;
22476;SDS011;65006;51.698;-0.292;2023-05-18T04:21:54;10.98;;;2.70;;
22476;SDS011;65006;51.698;-0.292;2023-05-18T04:24:20;8.90;;;2.28;;
22476;SDS011;65006;51.698;-0.292;2023-05-18T04:26:48;7.80;;;2.78;;
22476;SDS011;65006;51.698;-0.292;2023-05-18T04:29:14;6.57;;;2.08;;
22476;SDS011;65006;51.698;-0.292;2023-05-18T04:31:41;10.45;;;2.53;;
22476;SDS011;65006;51.698;-0.292;2023-05-18T04:34:08;8.40;;;2.45;;
22476;SDS011;65006;51.698;-0.292;2023-05-18T04:36:37;10.68;;;3.00;;
22476;SDS011;65006;51.698;-0.292;2023-05-18T04:39:04;11.00;;;2.53;;
22476;SDS011;65006;51.698;-0.292;2023-05-18T04:41:31;7.57;;;2.58;;
22476;SDS011;65006;51.698;-0.292;2023-05-18T04:43:58;8.23;;;2.78;;
22476;SDS011;65006;51.698;-0.292;2023-05-18T04:46:28;11.98;;;2.42;;
22476;SDS011;65006;51.698;-0.292;2023-05-18T04:48:54;8.55;;;2.67;;
22476;SDS011;65006;51.698;-0.292;2023-05-18T04:51:23;6.05;;;2.22;;
22476;SDS011;65006;51.698;-0.292;2023-05-18T04:53:50;8.18;;;2.10;;
22476;SDS011;65006;51.698;-0.292;2023-05-18T04:56:17;11.00;;;2.30;;
22476;SDS011;65006;51.698;-0.292;2023-05-18T04:58:44;13.38;;;2.47;;
22476;SDS011;65006;51.698;-0.292;2023-05-18T05:01:12;13.35;;;2.95;;
22476;SDS011;65006;51.698;-0.292;2023-05-18T05:03:39;5.95;;;2.05;;
22476;SDS011;65006;51.698;-0.292;2023-05-18T05:06:05;6.00;;;2.80;;
22476;SDS011;65006;51.698;-0.292;2023-05-18T05:08:31;13.80;;;2.97;;
22476;SDS011;65006;51.698;-0.292;2023-05-18T05:10:59;6.60;;;2.13;;
22476;SDS011;65006;51.698;-0.292;2023-05-18T05:13:25;12.13;;;2.95;;
22476;SDS011;65006;51.698;-0.292;2023-05-18T05:15:51;8.93;;;2.33;;
22476;SDS011;65006;51.698;-0.292;2023-05-18T05:18:17;11.13;;;2.40;;
22476;SDS011;65006;51.698;-0.292;2023-05-18T05:20:43;8.07;;;2.55;;
22476;SDS011;65006;51.698;-0.292;2023-05-18T05:23:09;11.57;;;1.95;;
22476;SDS011;65006;51.698;-0.292;2023-05-18T05:25:35;8.10;;;2.45;;
22476;SDS011;65006;51.698;-0.292;2023-05-18T05:28:01;10.68;;;2.30;;
22476;SDS011;65006;51.698;-0.292;2023-05-18T05:30:27;6.70;;;2.28;;
22476;SDS011;65006;51.698;-0.292;2023-05-18T05:32:53;9.52;;;2.53;;
22476;SDS011;65006;51.698;-0.292;2023-05-18T05:35:19;6.07;;;2.78;;
22476;SDS011;65006;51.698;-0.292;2023-05-18T05:37:45;8.85;;;2.33;;
22476;SDS011;65006;51.698;-0.292;2023-05-18T05:40:11;9.90;;;2.72;;
22476;SDS011;65006;51.698;-0.292;2023-05-18T05:42:37;8.02;;;3.05;;
22476;SDS011;65006;51.698;-0.292;2023-05-18T05:45:03;10.27;;;2.75;;
22476;SDS011;65006;51.698;-0.292;2023-05-18T05:49:55;13.63;;;2.78;;
22476;SDS011;65006;51.698;-0.292;2023-05-18T05:52:21;14.45;;;2.63;;
22476;SDS011;65006;51.698;-0.292;2023-05-18T05:54:47;12.00;;;2.42;;
22476;SDS011;65006;51.698;-0.292;2023-05-18T05:57:13;8.70;;;2.70;;
22476;SDS011;65006;51.698;-0.292;2023-05-18T05:59:39;7.28;;;2.55;;
22476;SDS011;65006;51.698;-0.292;2023-05-18T06:02:05;7.13;;;2.53;;
22476;SDS011;65006;51.698;-0.292;2023-05-18T06:04:31;8.77;;;2.63;;
22476;SDS011;65006;51.698;-0.292;2023-05-18T06:06:57;9.70;;;2.55;;
22476;SDS011;65006;51.698;-0.292;2023-05-18T06:09:23;8.98;;;2.55;;
22476;SDS011;65006;51.698;-0.292;2023-05-18T06:11:49;17.38;;;2.83;;
22476;SDS011;65006;51.698;-0.292;2023-05-18T06:14:16;10.68;;;2.40;;
22476;SDS011;65006;51.698;-0.292;2023-05-18T06:16:42;7.03;;;2.35;;
22476;SDS011;65006;51.698;-0.292;2023-05-18T06:19:08;8.00;;;2.80;;
22476;SDS011;65006;51.698;-0.292;2023-05-18T06:21:34;16.85;;;3.25;;
22476;SDS011;65006;51.698;-0.292;2023-05-18T06:24:01;7.68;;;2.67;;
22476;SDS011;65006;51.698;-0.292;2023-05-18T06:26:28;7.55;;;2.78;;
22476;SDS011;65006;51.698;-0.292;2023-05-18T06:28:54;10.30;;;3.05;;
22476;SDS011;65006;51.698;-0.292;2023-05-18T06:31:21;7.30;;;2.20;;
22476;SDS011;65006;51.698;-0.292;2023-05-18T06:33:47;8.00;;;2.45;;
22476;SDS011;65006;51.698;-0.292;2023-05-18T06:36:14;9.60;;;3.15;;
22476;SDS011;65006;51.698;-0.292;2023-05-18T06:41:05;7.45;;;2.92;;
22476;SDS011;65006;51.698;-0.292;2023-05-18T06:43:32;11.82;;;2.50;;
22476;SDS011;65006;51.698;-0.292;2023-05-18T06:45:57;10.85;;;2.72;;
22476;SDS011;65006;51.698;-0.292;2023-05-18T06:48:24;13.73;;;2.92;;
22476;SDS011;65006;51.698;-0.292;2023-05-18T06:50:51;6.60;;;2.30;;
22476;SDS011;65006;51.698;-0.292;2023-05-18T06:53:17;9.00;;;2.40;;
22476;SDS011;65006;51.698;-0.292;2023-05-18T06:55:43;10.68;;;2.30;;
22476;SDS011;65006;51.698;-0.292;2023-05-18T06:58:09;8.40;;;2.28;;
22476;SDS011;65006;51.698;-0.292;2023-05-18T07:00:36;11.43;;;3.42;;
22476;SDS011;65006;51.698;-0.292;2023-05-18T07:03:03;8.32;;;2.00;;
22476;SDS011;65006;51.698;-0.292;2023-05-18T07:05:29;9.70;;;2.28;;
22476;SDS011;65006;51.698;-0.292;2023-05-18T07:07:55;10.50;;;2.20;;
22476;SDS011;65006;51.698;-0.292;2023-05-18T07:10:21;8.10;;;2.30;;
22476;SDS011;65006;51.698;-0.292;2023-05-18T07:12:48;6.03;;;1.70;;
22476;SDS011;65006;51.698;-0.292;2023-05-18T07:15:14;8.13;;;2.17;;
22476;SDS011;65006;51.698;-0.292;2023-05-18T07:17:40;7.80;;;2.08;;
22476;SDS011;65006;51.698;-0.292;2023-05-18T07:20:06;7.38;;;2.15;;
22476;SDS011;65006;51.698;-0.292;2023-05-18T07:22:33;5.78;;;2.05;;
22476;SDS011;65006;51.698;-0.292;2023-05-18T07:24:59;8.10;;;2.00;;
22476;SDS011;65006;51.698;-0.292;2023-05-18T07:27:26;8.90;;;2.17;;
22476;SDS011;65006;51.698;-0.292;2023-05-18T07:29:52;8.32;;;2.47;;
22476;SDS011;65006;51.698;-0.292;2023-05-18T07:32:18;5.20;;;1.95;;
22476;SDS011;65006;51.698;-0.292;2023-05-18T07:34:44;6.75;;;2.15;;
22476;SDS011;65006;51.698;-0.292;2023-05-18T07:37:14;8.32;;;1.92;;
22476;SDS011;65006;51.698;-0.292;2023-05-18T07:39:40;5.88;;;2.28;;
22476;SDS011;65006;51.698;-0.292;2023-05-18T07:42:06;5.53;;;2.22;;
22476;SDS011;65006;51.698;-0.292;2023-05-18T07:46:58;9.98;;;2.10;;
22476;SDS011;65006;51.698;-0.292;2023-05-18T07:49:24;6.70;;;2.22;;
22476;SDS011;65006;51.698;-0.292;2023-05-18T07:51:51;8.50;;;2.13;;
22476;SDS011;65006;51.698;-0.292;2023-05-18T07:54:17;7.65;;;2.08;;
22476;SDS011;65006;51.698;-0.292;2023-05-18T07:56:43;14.27;;;3.10;;
22476;SDS011;65006;51.698;-0.292;2023-05-18T07:59:09;9.40;;;2.08;;
22476;SDS011;65006;51.698;-0.292;2023-05-18T08:01:36;10.98;;;2.53;;
22476;SDS011;65006;51.698;-0.292;2023-05-18T08:04:05;7.07;;;2.92;;
22476;SDS011;65006;51.698;-0.292;2023-05-18T08:06:31;8.27;;;2.67;;
22476;SDS011;65006;51.698;-0.292;2023-05-18T08:08:57;11.48;;;2.92;;
22476;SDS011;65006;51.698;-0.292;2023-05-18T08:11:24;9.88;;;2.70;;
22476;SDS011;65006;51.698;-0.292;2023-05-18T08:13:50;9.13;;;3.38;;
22476;SDS011;65006;51.698;-0.292;2023-05-18T08:16:16;12.73;;;4.47;;
22476;SDS011;65006;51.698;-0.292;2023-05-18T08:18:42;10.50;;;3.63;;
22476;SDS011;65006;51.698;-0.292;2023-05-18T08:21:09;14.45;;;3.38;;
22476;SDS011;65006;51.698;-0.292;2023-05-18T08:26:01;14.98;;;4.00;;
22476;SDS011;65006;51.698;-0.292;2023-05-18T08:28:30;14.60;;;3.83;;
22476;SDS011;65006;51.698;-0.292;2023-05-18T08:30:56;11.98;;;3.63;;
22476;SDS011;65006;51.698;-0.292;2023-05-18T08:33:24;7.88;;;3.17;;
22476;SDS011;65006;51.698;-0.292;2023-05-18T08:35:50;6.55;;;3.25;;
22476;SDS011;65006;51.698;-0.292;2023-05-18T08:38:16;13.93;;;4.13;;
22476;SDS011;65006;51.698;-0.292;2023-05-18T08:40:56;7.57;;;3.30;;
22476;SDS011;65006;51.698;-0.292;2023-05-18T08:43:24;10.90;;;3.55;;
22476;SDS011;65006;51.698;-0.292;2023-05-18T08:46:03;13.30;;;3.30;;
22476;SDS011;65006;51.698;-0.292;2023-05-18T08:48:30;14.00;;;3.90;;
22476;SDS011;65006;51.698;-0.292;2023-05-18T08:51:00;9.32;;;3.05;;
22476;SDS011;65006;51.698;-0.292;2023-05-18T08:53:28;9.32;;;3.35;;
22476;SDS011;65006;51.698;-0.292;2023-05-18T08:55:55;11.88;;;3.55;;
22476;SDS011;65006;51.698;-0.292;2023-05-18T08:58:26;6.53;;;3.10;;
22476;SDS011;65006;51.698;-0.292;2023-05-18T09:00:54;12.15;;;3.33;;
22476;SDS011;65006;51.698;-0.292;2023-05-18T09:03:20;17.00;;;3.53;;
22476;SDS011;65006;51.698;-0.292;2023-05-18T09:08:13;12.52;;;3.33;;
22476;SDS011;65006;51.698;-0.292;2023-05-18T09:10:39;11.52;;;2.92;;
22476;SDS011;65006;51.698;-0.292;2023-05-18T09:13:05;6.85;;;3.65;;
22476;SDS011;65006;51.698;-0.292;2023-05-18T09:15:32;9.48;;;3.42;;
22476;SDS011;65006;51.698;-0.292;2023-05-18T09:20:25;5.60;;;2.92;;
22476;SDS011;65006;51.698;-0.292;2023-05-18T09:22:51;10.13;;;3.88;;
22476;SDS011;65006;51.698;-0.292;2023-05-18T09:25:17;16.60;;;4.43;;
22476;SDS011;65006;51.698;-0.292;2023-05-18T09:27:43;10.95;;;4.20;;
22476;SDS011;65006;51.698;-0.292;2023-05-18T09:30:10;12.02;;;3.00;;
22476;SDS011;65006;51.698;-0.292;2023-05-18T09:32:36;10.27;;;3.40;;
22476;SDS011;65006;51.698;-0.292;2023-05-18T09:35:02;12.30;;;3.53;;
22476;SDS011;65006;51.698;-0.292;2023-05-18T09:37:29;9.93;;;3.65;;
22476;SDS011;65006;51.698;-0.292;2023-05-18T09:42:21;18.85;;;4.38;;
22476;SDS011;65006;51.698;-0.292;2023-05-18T09:44:51;7.15;;;3.80;;
22476;SDS011;65006;51.698;-0.292;2023-05-18T09:47:17;10.30;;;3.60;;
22476;SDS011;65006;51.698;-0.292;2023-05-18T09:49:43;10.25;;;3.05;;
22476;SDS011;65006;51.698;-0.292;2023-05-18T09:52:09;10.85;;;3.33;;
22476;SDS011;65006;51.698;-0.292;2023-05-18T09:54:35;6.97;;;3.05;;
22476;SDS011;65006;51.698;-0.292;2023-05-18T09:57:02;7.47;;;3.05;;
22476;SDS011;65006;51.698;-0.292;2023-05-18T09:59:29;13.40;;;3.38;;
22476;SDS011;65006;51.698;-0.292;2023-05-18T10:01:59;11.55;;;4.25;;
22476;SDS011;65006;51.698;-0.292;2023-05-18T10:04:38;7.70;;;3.65;;
22476;SDS011;65006;51.698;-0.292;2023-05-18T10:07:08;6.82;;;2.80;;
22476;SDS011;65006;51.698;-0.292;2023-05-18T10:09:35;7.88;;;2.22;;
22476;SDS011;65006;51.698;-0.292;2023-05-18T10:12:01;8.18;;;2.67;;
22476;SDS011;65006;51.698;-0.292;2023-05-18T10:14:31;11.50;;;3.22;;
22476;SDS011;65006;51.698;-0.292;2023-05-18T10:17:02;12.60;;;3.65;;
22476;SDS011;65006;51.698;-0.292;2023-05-18T10:19:28;9.02;;;2.97;;
22476;SDS011;65006;51.698;-0.292;2023-05-18T10:21:55;9.32;;;3.03;;
22476;SDS011;65006;51.698;-0.292;2023-05-18T10:24:21;11.40;;;2.97;;
22476;SDS011;65006;51.698;-0.292;2023-05-18T10:26:48;7.43;;;3.45;;
22476;SDS011;65006;51.698;-0.292;2023-05-18T10:29:15;9.77;;;3.95;;
22476;SDS011;65006;51.698;-0.292;2023-05-18T10:31:41;11.50;;;3.60;;
22476;SDS011;65006;51.698;-0.292;2023-05-18T10:34:09;14.65;;;3.85;;
22476;SDS011;65006;51.698;-0.292;2023-05-18T10:36:35;15.13;;;2.80;;
22476;SDS011;65006;51.698;-0.292;2023-05-18T10:39:02;8.90;;;3.38;;
22476;SDS011;65006;51.698;-0.292;2023-05-18T10:41:29;5.57;;;2.42;;
22476;SDS011;65006;51.698;-0.292;2023-05-18T10:43:56;12.05;;;2.63;;
22476;SDS011;65006;51.698;-0.292;2023-05-18T10:46:27;10.18;;;2.60;;
22476;SDS011;65006;51.698;-0.292;2023-05-18T10:48:53;9.93;;;2.88;;
22476;SDS011;65006;51.698;-0.292;2023-05-18T10:51:20;5.50;;;2.10;;
22476;SDS011;65006;51.698;-0.292;2023-05-18T10:53:46;4.90;;;2.10;;
22476;SDS011;65006;51.698;-0.292;2023-05-18T10:56:14;11.48;;;2.30;;
22476;SDS011;65006;51.698;-0.292;2023-05-18T10:58:40;6.93;;;2.25;;
22476;SDS011;65006;51.698;-0.292;2023-05-18T11:01:08;3.38;;;2.03;;
22476;SDS011;65006;51.698;-0.292;2023-05-18T11:03:34;5.15;;;2.53;;
22476;SDS011;65006;51.698;-0.292;2023-05-18T11:08:32;10.20;;;2.58;;
22476;SDS011;65006;51.698;-0.292;2023-05-18T11:13:30;6.40;;;2.10;;
22476;SDS011;65006;51.698;-0.292;2023-05-18T11:21:03;7.13;;;2.17;;
22476;SDS011;65006;51.698;-0.292;2023-05-18T11:23:32;7.80;;;2.30;;
22476;SDS011;65006;51.698;-0.292;2023-05-18T11:25:58;4.85;;;2.13;;
22476;SDS011;65006;51.698;-0.292;2023-05-18T11:28:28;6.03;;;1.95;;
22476;SDS011;65006;51.698;-0.292;2023-05-18T11:33:22;4.32;;;1.80;;
22476;SDS011;65006;51.698;-0.292;2023-05-18T11:38:20;4.63;;;1.73;;
22476;SDS011;65006;51.698;-0.292;2023-05-18T11:40:47;10.20;;;2.17;;
22476;SDS011;65006;51.698;-0.292;2023-05-18T11:43:18;5.50;;;2.40;;
22476;SDS011;65006;51.698;-0.292;2023-05-18T11:45:52;5.85;;;2.00;;
22476;SDS011;65006;51.698;-0.292;2023-05-18T11:48:21;5.18;;;2.03;;
22476;SDS011;65006;51.698;-0.292;2023-05-18T11:50:47;6.32;;;2.63;;
22476;SDS011;65006;51.698;-0.292;2023-05-18T11:53:14;10.45;;;2.40;;
22476;SDS011;65006;51.698;-0.292;2023-05-18T11:55:43;6.70;;;1.83;;
22476;SDS011;65006;51.698;-0.292;2023-05-18T12:00:42;7.78;;;2.03;;
22476;SDS011;65006;51.698;-0.292;2023-05-18T12:03:08;5.57;;;1.85;;
22476;SDS011;65006;51.698;-0.292;2023-05-18T12:05:34;8.80;;;2.47;;
22476;SDS011;65006;51.698;-0.292;2023-05-18T12:08:01;9.90;;;2.28;;
22476;SDS011;65006;51.698;-0.292;2023-05-18T12:10:27;5.60;;;1.70;;
22476;SDS011;65006;51.698;-0.292;2023-05-18T12:12:55;7.55;;;2.38;;
22476;SDS011;65006;51.698;-0.292;2023-05-18T12:15:22;6.88;;;2.63;;
22476;SDS011;65006;51.698;-0.292;2023-05-18T12:20:15;5.55;;;2.45;;
22476;SDS011;65006;51.698;-0.292;2023-05-18T12:22:45;5.25;;;2.13;;
22476;SDS011;65006;51.698;-0.292;2023-05-18T12:25:14;7.55;;;2.42;;
22476;SDS011;65006;51.698;-0.292;2023-05-18T12:27:44;6.57;;;2.33;;
22476;SDS011;65006;51.698;-0.292;2023-05-18T12:30:12;4.38;;;2.20;;
22476;SDS011;65006;51.698;-0.292;2023-05-18T12:32:48;10.05;;;2.75;;
22476;SDS011;65006;51.698;-0.292;2023-05-18T12:35:15;10.18;;;2.45;;
22476;SDS011;65006;51.698;-0.292;2023-05-18T12:37:42;7.32;;;2.28;;
22476;SDS011;65006;51.698;-0.292;2023-05-18T12:40:08;14.45;;;2.92;;
22476;SDS011;65006;51.698;-0.292;2023-05-18T12:42:35;7.07;;;2.15;;
22476;SDS011;65006;51.698;-0.292;2023-05-18T12:45:02;6.47;;;2.05;;
22476;SDS011;65006;51.698;-0.292;2023-05-18T12:47:29;12.30;;;2.55;;
22476;SDS011;65006;51.698;-0.292;2023-05-18T12:49:59;3.08;;;1.70;;
22476;SDS011;65006;51.698;-0.292;2023-05-18T12:52:25;6.18;;;1.95;;
22476;SDS011;65006;51.698;-0.292;2023-05-18T12:54:53;5.22;;;2.28;;
22476;SDS011;65006;51.698;-0.292;2023-05-18T12:57:22;3.67;;;1.70;;
22476;SDS011;65006;51.698;-0.292;2023-05-18T12:59:50;7.45;;;2.45;;
22476;SDS011;65006;51.698;-0.292;2023-05-18T13:02:27;2.42;;;1.48;;
22476;SDS011;65006;51.698;-0.292;2023-05-18T13:05:04;7.07;;;1.83;;
22476;SDS011;65006;51.698;-0.292;2023-05-18T13:07:31;5.05;;;1.88;;
22476;SDS011;65006;51.698;-0.292;2023-05-18T13:10:04;5.22;;;2.08;;
22476;SDS011;65006;51.698;-0.292;2023-05-18T13:12:34;6.55;;;1.98;;
22476;SDS011;65006;51.698;-0.292;2023-05-18T13:15:06;5.30;;;2.08;;
22476;SDS011;65006;51.698;-0.292;2023-05-18T13:17:32;4.32;;;1.80;;
22476;SDS011;65006;51.698;-0.292;2023-05-18T13:19:58;6.07;;;1.85;;
22476;SDS011;65006;51.698;-0.292;2023-05-18T13:22:24;6.90;;;2.08;;
22476;SDS011;65006;51.698;-0.292;2023-05-18T13:24:50;3.70;;;1.60;;
22476;SDS011;65006;51.698;-0.292;2023-05-18T13:27:16;12.40;;;2.05;;
22476;SDS011;65006;51.698;-0.292;2023-05-18T13:29:42;5.85;;;2.03;;
22476;SDS011;65006;51.698;-0.292;2023-05-18T13:32:08;5.22;;;1.70;;
22476;SDS011;65006;51.698;-0.292;2023-05-18T13:34:34;6.55;;;2.10;;
22476;SDS011;65006;51.698;-0.292;2023-05-18T13:37:00;7.55;;;2.10;;
22476;SDS011;65006;51.698;-0.292;2023-05-18T13:39:26;5.82;;;1.90;;
22476;SDS011;65006;51.698;-0.292;2023-05-18T13:41:53;5.85;;;2.08;;
22476;SDS011;65006;51.698;-0.292;2023-05-18T13:44:19;6.63;;;2.00;;
22476;SDS011;65006;51.698;-0.292;2023-05-18T13:46:45;4.65;;;1.90;;
22476;SDS011;65006;51.698;-0.292;2023-05-18T13:49:11;11.75;;;1.98;;
22476;SDS011;65006;51.698;-0.292;2023-05-18T13:51:38;5.18;;;1.75;;
22476;SDS011;65006;51.698;-0.292;2023-05-18T13:54:04;3.95;;;1.65;;
22476;SDS011;65006;51.698;-0.292;2023-05-18T13:56:31;7.20;;;1.85;;
22476;SDS011;65006;51.698;-0.292;2023-05-18T13:58:57;7.25;;;1.95;;
22476;SDS011;65006;51.698;-0.292;2023-05-18T14:01:23;4.95;;;1.80;;
22476;SDS011;65006;51.698;-0.292;2023-05-18T14:03:49;7.93;;;1.98;;
22476;SDS011;65006;51.698;-0.292;2023-05-18T14:06:15;4.28;;;1.80;;
22476;SDS011;65006;51.698;-0.292;2023-05-18T14:08:42;3.30;;;1.65;;
22476;SDS011;65006;51.698;-0.292;2023-05-18T14:11:08;3.83;;;1.90;;
22476;SDS011;65006;51.698;-0.292;2023-05-18T14:13:34;3.47;;;1.80;;
22476;SDS011;65006;51.698;-0.292;2023-05-18T14:16:00;9.20;;;1.90;;
22476;SDS011;65006;51.698;-0.292;2023-05-18T14:18:26;10.43;;;1.88;;
22476;SDS011;65006;51.698;-0.292;2023-05-18T14:20:52;5.43;;;1.80;;
22476;SDS011;65006;51.698;-0.292;2023-05-18T14:23:18;5.05;;;1.98;;
22476;SDS011;65006;51.698;-0.292;2023-05-18T14:25:44;2.38;;;1.55;;
22476;SDS011;65006;51.698;-0.292;2023-05-18T14:28:10;5.45;;;2.00;;
22476;SDS011;65006;51.698;-0.292;2023-05-18T14:30:37;4.32;;;1.70;;
22476;SDS011;65006;51.698;-0.292;2023-05-18T14:33:03;3.63;;;2.00;;
22476;SDS011;65006;51.698;-0.292;2023-05-18T14:35:29;4.30;;;1.73;;
22476;SDS011;65006;51.698;-0.292;2023-05-18T14:37:55;4.10;;;1.58;;
22476;SDS011;65006;51.698;-0.292;2023-05-18T14:40:22;6.55;;;1.88;;
22476;SDS011;65006;51.698;-0.292;2023-05-18T14:42:48;4.35;;;1.70;;
22476;SDS011;65006;51.698;-0.292;2023-05-18T14:45:14;4.82;;;1.83;;
22476;SDS011;65006;51.698;-0.292;2023-05-18T14:47:41;5.85;;;2.55;;
22476;SDS011;65006;51.698;-0.292;2023-05-18T14:50:07;3.60;;;2.15;;
22476;SDS011;65006;51.698;-0.292;2023-05-18T14:52:33;4.78;;;1.45;;
22476;SDS011;65006;51.698;-0.292;2023-05-18T14:54:59;5.40;;;1.60;;
22476;SDS011;65006;51.698;-0.292;2023-05-18T14:57:25;7.53;;;1.80;;
22476;SDS011;65006;51.698;-0.292;2023-05-18T14:59:51;5.47;;;1.77;;
22476;SDS011;65006;51.698;-0.292;2023-05-18T15:02:17;5.72;;;1.50;;
22476;SDS011;65006;51.698;-0.292;2023-05-18T15:04:43;5.68;;;1.52;;
22476;SDS011;65006;51.698;-0.292;2023-05-18T15:07:10;6.88;;;2.05;;
22476;SDS011;65006;51.698;-0.292;2023-05-18T15:09:36;5.47;;;1.63;;
22476;SDS011;65006;51.698;-0.292;2023-05-18T15:12:02;3.83;;;1.67;;
22476;SDS011;65006;51.698;-0.292;2023-05-18T15:14:28;5.25;;;1.60;;
22476;SDS011;65006;51.698;-0.292;2023-05-18T15:16:54;2.90;;;1.42;;
22476;SDS011;65006;51.698;-0.292;2023-05-18T15:19:20;4.18;;;2.00;;
22476;SDS011;65006;51.698;-0.292;2023-05-18T15:21:46;2.80;;;1.60;;
22476;SDS011;65006;51.698;-0.292;2023-05-18T15:24:12;5.72;;;2.00;;
22476;SDS011;65006;51.698;-0.292;2023-05-18T15:26:38;5.28;;;1.42;;